Camp Dodge, Iowa
Current Conditions -  °F | °C
As of 9:55 AM on Thursday 27 Nov 2014 (Local Time) from KIKV Reporting Station
Clear Clear  
Wind Chill: -12°   Ceiling: Unl
Heat Index:   Visibility: 10mi
Dew Point: -6°   Wind: 8mph
Humidity: 72%   Direction: 340°NNW
Pressure: 30.55"   Gusts: NA
Location:  41.689°N, 93.7182°W
Report Text: KIKV 271555Z AUTO 34007KT 10SM CLR M17/M21 A3055 RMK AO2
Loading
Personal Weather Stations






























Interactive Weather Map New forecast layout! Learn more

10-Day Weather Forecast

Advertisements
Track Severe Weather on mobile